Time;durP1;ratioP1;P1;durP2;ratioP2;P2;SDS_P1;SDS_P2;PMS_P1;PMS_P2;Temp;Humidity;BMP_temperature;BMP_pressure;BME280_temperature;BME280_humidity;BME280_pressure;Samples;Min_cycle;Max_cycle;Signal;HPM_P1;HPM_P2
2019/09/20 00:01:47;;;;;;;8.4;2.6;;;;;;;7.78;77.33789;947.9885;;;;
2019/09/20 00:04:22;;;;;;;9.7;2.7;;;;;;;7.79;77.66797;947.9483;;;;
2019/09/20 00:06:55;;;;;;;12;3;;;;;;;7.71;77.49609;947.932;;;;
2019/09/20 00:09:24;;;;;;;11.2;2.9;;;;;;;7.69;78.16113;947.9384;;;;
2019/09/20 00:11:58;;;;;;;9.8;3;;;;;;;7.68;77.98926;947.88;;;;
2019/09/20 00:14:35;;;;;;;7.9;3.2;;;;;;;7.4;79.02637;947.7672;;;;
2019/09/20 00:17:01;;;;;;;9.5;3.5;;;;;;;7.52;78.63965;947.6719;;;;
2019/09/20 00:19:26;;;;;;;11.9;3.9;;;;;;;7.52;78.78711;947.7004;;;;
2019/09/20 00:21:53;;;;;;;9.3;3.7;;;;;;;7.64;78.2998;947.6727;;;;
2019/09/20 00:24:20;;;;;;;10.9;3.7;;;;;;;7.76;77.67285;947.6458;;;;
2019/09/20 00:26:47;;;;;;;9.6;3.6;;;;;;;7.79;77.54395;947.6326;;;;
2019/09/20 00:29:21;;;;;;;15.2;5.3;;;;;;;7.77;77.17773;947.6255;;;;
2019/09/20 00:31:51;;;;;;;8.8;3.5;;;;;;;7.76;77.40234;947.5905;;;;
2019/09/20 00:34:20;;;;;;;8.1;3.4;;;;;;;7.81;77.24023;947.5563;;;;
2019/09/20 00:36:45;;;;;;;9.1;2.6;;;;;;;7.84;77.05371;947.5403;;;;
2019/09/20 00:39:28;;;;;;;9;2.8;;;;;;;7.59;77.29199;947.4889;;;;
2019/09/20 00:41:55;;;;;;;6.9;2.3;;;;;;;7.56;77.38965;947.4772;;;;
2019/09/20 00:44:35;;;;;;;6.5;2.4;;;;;;;7.49;77.66016;947.4222;;;;
2019/09/20 00:46:59;;;;;;;11.2;2.9;;;;;;;7.31;78.34082;947.3978;;;;
2019/09/20 00:49:33;;;;;;;10.1;2.7;;;;;;;7.15;79.33105;947.3988;;;;
2019/09/20 00:52:04;;;;;;;8.1;2.4;;;;;;;7.2;79.02344;947.3247;;;;
2019/09/20 00:54:48;;;;;;;8.2;2.6;;;;;;;7.28;78.9707;947.3431;;;;
2019/09/20 00:57:13;;;;;;;9.5;2.7;;;;;;;7.39;78.99219;947.2971;;;;
2019/09/20 00:59:44;;;;;;;7.2;2.4;;;;;;;7.36;78.58789;947.3361;;;;
2019/09/20 01:02:08;;;;;;;9.7;2.4;;;;;;;7.26;78.6377;947.3428;;;;
2019/09/20 01:04:32;;;;;;;10;2.8;;;;;;;7.06;79.35938;947.3312;;;;
2019/09/20 01:07:03;;;;;;;8.4;3;;;;;;;6.63;81.29492;947.3035;;;;
2019/09/20 01:09:28;;;;;;;7.2;2.8;;;;;;;6.59;81.77344;947.3404;;;;
2019/09/20 01:11:59;;;;;;;8.6;3;;;;;;;6.77;80.69824;947.3364;;;;
2019/09/20 01:14:31;;;;;;;26.2;10.8;;;;;;;6.86;80.04785;947.3219;;;;
2019/09/20 01:17:05;;;;;;;22.5;9.3;;;;;;;6.87;80.09473;947.3303;;;;
2019/09/20 01:19:35;;;;;;;25.4;11.2;;;;;;;6.81;80.60449;947.2623;;;;
2019/09/20 01:22:00;;;;;;;27.2;11.5;;;;;;;6.86;79.96973;947.243;;;;
2019/09/20 01:24:26;;;;;;;15.2;6.4;;;;;;;6.89;79.80469;947.2322;;;;
2019/09/20 01:26:55;;;;;;;13.6;7;;;;;;;6.74;80.42188;947.1297;;;;
2019/09/20 01:29:22;;;;;;;10.8;4.4;;;;;;;6.62;80.7168;947.1085;;;;
2019/09/20 01:31:51;;;;;;;12;4.4;;;;;;;6.53;81.29883;947.0945;;;;
2019/09/20 01:34:13;;;;;;;11.8;4.1;;;;;;;6.65;80.67578;947.1152;;;;
2019/09/20 01:36:46;;;;;;;9.3;3.6;;;;;;;6.7;80.44727;947.1083;;;;
2019/09/20 01:39:11;;;;;;;12.4;4.9;;;;;;;6.68;80.42285;947.14;;;;
2019/09/20 01:41:40;;;;;;;9.6;5;;;;;;;6.69;80.58301;947.0812;;;;
2019/09/20 01:44:07;;;;;;;9.1;3.3;;;;;;;6.77;80.23438;947.134;;;;
2019/09/20 01:46:34;;;;;;;8;2.9;;;;;;;6.66;80.31543;947.1671;;;;
2019/09/20 01:49:23;;;;;;;10;3.7;;;;;;;6.57;80.42383;947.1047;;;;
2019/09/20 01:51:45;;;;;;;10.3;3.8;;;;;;;6.49;80.83789;947.1474;;;;
2019/09/20 01:54:14;;;;;;;10.4;3.9;;;;;;;6.52;80.75293;947.0836;;;;
2019/09/20 01:56:42;;;;;;;7.9;3.3;;;;;;;6.58;80.92285;947.1625;;;;
2019/09/20 01:59:15;;;;;;;8.4;3.6;;;;;;;6.7;80.18652;947.1613;;;;
2019/09/20 02:04:20;;;;;;;10.6;3;;;;;;;6.75;80.08203;947.0673;;;;
2019/09/20 02:06:58;;;;;;;13.3;2.9;;;;;;;6.83;80.39355;947.077;;;;
2019/09/20 02:09:25;;;;;;;11.4;2.7;;;;;;;6.85;80.25098;946.9886;;;;
2019/09/20 02:11:54;;;;;;;8.2;2.6;;;;;;;6.62;80.40918;946.9856;;;;
2019/09/20 02:14:21;;;;;;;9.2;2.5;;;;;;;6.6;80.88281;946.9872;;;;
2019/09/20 02:17:03;;;;;;;9.2;2.7;;;;;;;6.33;81.87207;946.9749;;;;
2019/09/20 02:19:33;;;;;;;5.9;2.5;;;;;;;6.28;82.31348;946.8895;;;;
2019/09/20 02:22:18;;;;;;;7.1;2.5;;;;;;;6.34;81.84961;946.9267;;;;
2019/09/20 02:24:42;;;;;;;9.4;3.1;;;;;;;6.43;81.6084;946.9283;;;;
2019/09/20 02:27:11;;;;;;;9.4;2.9;;;;;;;6.4;81.39941;946.9214;;;;
2019/09/20 02:29:46;;;;;;;7.6;2.9;;;;;;;6.16;82.07617;946.8342;;;;
2019/09/20 02:32:11;;;;;;;8.3;2.7;;;;;;;5.99;82.8457;946.7979;;;;
2019/09/20 02:34:43;;;;;;;7.1;2.7;;;;;;;6.12;82.47656;946.7441;;;;
2019/09/20 02:37:07;;;;;;;9;2.8;;;;;;;6.21;82.18457;946.7564;;;;
2019/09/20 02:39:41;;;;;;;8.8;2.9;;;;;;;6.24;82.30469;946.718;;;;
2019/09/20 02:42:04;;;;;;;11.3;3.1;;;;;;;6.33;81.50781;946.7279;;;;
2019/09/20 02:44:43;;;;;;;7.9;2.6;;;;;;;5.87;83.30664;946.7687;;;;
2019/09/20 02:47:49;;;;;;;10;2.8;;;;;;;5.86;83.95996;946.7328;;;;
2019/09/20 02:50:14;;;;;;;8.8;3;;;;;;;5.84;83.7998;946.6397;;;;
2019/09/20 02:52:43;;;;;;;7.2;2.7;;;;;;;5.71;84.60938;946.7377;;;;
2019/09/20 02:55:09;;;;;;;8.8;2.7;;;;;;;5.84;83.97949;946.6395;;;;
2019/09/20 02:57:42;;;;;;;8.2;3.1;;;;;;;5.88;83.7041;946.5526;;;;
2019/09/20 03:00:12;;;;;;;9;3.2;;;;;;;6.07;83.31348;946.4647;;;;
2019/09/20 03:02:36;;;;;;;8.5;2.7;;;;;;;5.84;83.49512;946.3923;;;;
2019/09/20 03:05:09;;;;;;;9.2;2.9;;;;;;;5.72;84.15918;946.4213;;;;
2019/09/20 03:07:42;;;;;;;9;2.7;;;;;;;5.77;83.91992;946.4531;;;;
2019/09/20 03:10:06;;;;;;;7;2.6;;;;;;;5.8;83.46191;946.4448;;;;
2019/09/20 03:12:38;;;;;;;10.4;2.8;;;;;;;5.85;83.29199;946.4977;;;;
2019/09/20 03:15:17;;;;;;;8.2;2.7;;;;;;;5.83;83.38965;946.5239;;;;
2019/09/20 03:17:40;;;;;;;7.9;3;;;;;;;6;82.59863;946.5595;;;;
2019/09/20 03:20:04;;;;;;;7.9;2.7;;;;;;;6.19;81.82129;946.6116;;;;
2019/09/20 03:22:30;;;;;;;8.1;3;;;;;;;6.31;81.34668;946.528;;;;
2019/09/20 03:25:04;;;;;;;5.8;2.4;;;;;;;6.36;80.59766;946.54;;;;
2019/09/20 03:27:33;;;;;;;6.1;2.5;;;;;;;6.35;81.0498;946.5999;;;;
2019/09/20 03:29:58;;;;;;;7.9;2.6;;;;;;;6.4;80.82227;946.598;;;;
2019/09/20 03:32:29;;;;;;;7.5;2.7;;;;;;;6.49;80.4082;946.5674;;;;
2019/09/20 03:34:56;;;;;;;9.7;2.8;;;;;;;6.48;80.33887;946.5569;;;;
2019/09/20 03:37:36;;;;;;;8.8;2.9;;;;;;;6.48;81.18652;946.4872;;;;
2019/09/20 03:40:08;;;;;;;7.7;2.9;;;;;;;6.47;81.20898;946.6017;;;;
2019/09/20 03:42:42;;;;;;;6.1;2.5;;;;;;;6.49;81.04297;946.6167;;;;
2019/09/20 03:45:28;;;;;;;8.7;2.9;;;;;;;6.44;80.27539;946.6417;;;;
2019/09/20 03:48:01;;;;;;;10.3;2.6;;;;;;;6.34;80.43555;946.5511;;;;
2019/09/20 03:51:15;;;;;;;8.4;2.9;;;;;;;6.19;81.45996;946.6036;;;;
2019/09/20 03:53:36;;;;;;;12;3.2;;;;;;;6.04;82.73145;946.552;;;;
2019/09/20 03:56:09;;;;;;;12.6;3.3;;;;;;;5.98;82.95508;946.4913;;;;
2019/09/20 03:58:38;;;;;;;13.8;3.6;;;;;;;6.1;82.18848;946.6301;;;;
2019/09/20 07:47:55;;;;;;;11.6;4.2;;;;;;;17.14;46.7041;946.9539;;;;
2019/09/20 07:50:28;;;;;;;8.7;2.7;;;;;;;17.1;47.73242;946.9169;;;;
2019/09/20 07:52:55;;;;;;;8;2.7;;;;;;;17.42;46.90723;946.897;;;;
2019/09/20 07:55:23;;;;;;;12.2;2.8;;;;;;;17.47;46.37891;946.8272;;;;
2019/09/20 07:58:00;;;;;;;12.5;2.7;;;;;;;17.92;46.21777;946.8946;;;;
2019/09/20 08:00:26;;;;;;;8.6;2.4;;;;;;;18.9;42.73633;946.8307;;;;
2019/09/20 08:02:50;;;;;;;11.3;2.3;;;;;;;19.05;42.13379;946.8336;;;;
2019/09/20 08:05:14;;;;;;;9.9;2.6;;;;;;;19.79;41.1543;946.8317;;;;
2019/09/20 08:07:45;;;;;;;6;2.5;;;;;;;19.61;41.0332;946.798;;;;
2019/09/20 08:10:12;;;;;;;7.1;2.1;;;;;;;18.76;43.30469;946.7283;;;;
2019/09/20 08:12:43;;;;;;;12.5;2.5;;;;;;;19.57;42.79004;946.7847;;;;
2019/09/20 08:16:54;;;;;;;8.2;2.5;;;;;;;20.88;40.39063;946.7022;;;;
2019/09/20 08:17:33;;;;;;;6.1;2.2;;;;;;;21.54;37.99316;946.6225;;;;
2019/09/20 08:20:01;;;;;;;9.9;2.3;;;;;;;21.1;38.58691;946.6558;;;;
2019/09/20 08:22:31;;;;;;;7.3;2.2;;;;;;;21.42;39.48047;946.635;;;;
2019/09/20 08:24:57;;;;;;;7.9;2.4;;;;;;;22.43;36.41504;946.6896;;;;
2019/09/20 08:27:27;;;;;;;5.6;2.1;;;;;;;23.3;34.91016;946.7276;;;;
2019/09/20 08:29:51;;;;;;;7.6;2.4;;;;;;;23.68;33.51758;946.7181;;;;
2019/09/20 08:32:22;;;;;;;6;2;;;;;;;23.98;34.88184;946.7049;;;;
2019/09/20 08:34:54;;;;;;;8.1;2.2;;;;;;;23.58;35.95605;946.7238;;;;
2019/09/20 08:37:24;;;;;;;5.8;2.1;;;;;;;23.57;36.73242;946.7037;;;;
2019/09/20 08:39:50;;;;;;;6.9;2.3;;;;;;;22.87;35.27637;946.6736;;;;
2019/09/20 08:42:17;;;;;;;5.7;2.4;;;;;;;22.88;37.10938;946.6125;;;;
2019/09/20 08:44:47;;;;;;;9.7;2.5;;;;;;;23.34;37.51172;946.7281;;;;
2019/09/20 08:47:18;;;;;;;9;2.3;;;;;;;23.44;37.16797;946.6166;;;;
2019/09/20 08:50:19;;;;;;;8.7;2.4;;;;;;;23.25;38.19824;946.6598;;;;
2019/09/20 08:52:51;;;;;;;10.2;2.2;;;;;;;22.74;39.80957;946.6371;;;;
2019/09/20 08:55:20;;;;;;;5.8;2.2;;;;;;;23;38.23535;946.6696;;;;
2019/09/20 08:57:43;;;;;;;7.4;2.3;;;;;;;23.13;38.78711;946.6845;;;;
2019/09/20 09:00:08;;;;;;;8.1;2.3;;;;;;;23.06;37.53516;946.6799;;;;
2019/09/20 09:02:43;;;;;;;5;2;;;;;;;22.91;38.43945;946.688;;;;
2019/09/20 09:05:12;;;;;;;10.3;2.8;;;;;;;22.69;37.90332;946.6767;;;;
2019/09/20 09:07:42;;;;;;;7;2.2;;;;;;;22.93;37.9707;946.5909;;;;
2019/09/20 09:10:07;;;;;;;9.7;2.6;;;;;;;22.53;38.54688;946.6128;;;;
2019/09/20 09:12:35;;;;;;;8;2.4;;;;;;;22.05;39.87598;946.6116;;;;
2019/09/20 09:15:00;;;;;;;11.9;2.6;;;;;;;21.58;40.31543;946.5496;;;;
2019/09/20 09:17:27;;;;;;;7.5;2.3;;;;;;;21;41.58301;946.6206;;;;
2019/09/20 09:19:58;;;;;;;8.8;2.6;;;;;;;20.84;42.45605;946.634;;;;
2019/09/20 09:22:23;;;;;;;8.2;2.3;;;;;;;20.72;44.50195;946.6446;;;;
2019/09/20 09:24:51;;;;;;;10.5;2.5;;;;;;;20.32;43.8418;946.6361;;;;
2019/09/20 09:27:21;;;;;;;8.2;2.4;;;;;;;20.01;43.91699;946.6052;;;;
2019/09/20 09:29:47;;;;;;;8.6;2.7;;;;;;;19.63;46.10547;946.6234;;;;
2019/09/20 09:32:11;;;;;;;7.1;2.4;;;;;;;19.49;46.14941;946.6108;;;;
2019/09/20 09:34:45;;;;;;;8;2.6;;;;;;;18.98;46.86523;946.6055;;;;
2019/09/20 09:37:46;;;;;;;12.3;3;;;;;;;18.91;47.0791;946.5514;;;;
2019/09/20 09:40:16;;;;;;;10.2;2.8;;;;;;;18.68;48.21777;946.5039;;;;
2019/09/20 09:45:07;;;;;;;10;2.5;;;;;;;18.64;49.58594;946.4236;;;;
2019/09/20 09:47:37;;;;;;;12.2;2.7;;;;;;;18.71;49.53418;946.4867;;;;
2019/09/20 09:50:09;;;;;;;8.1;2.8;;;;;;;18.6;47.86035;946.4548;;;;
2019/09/20 09:52:32;;;;;;;7.8;2.6;;;;;;;18.34;49.92383;946.4235;;;;
2019/09/20 09:54:59;;;;;;;8.8;2.5;;;;;;;18.43;50.41016;946.5014;;;;
2019/09/20 09:57:24;;;;;;;8.2;2.7;;;;;;;18.19;49.23242;946.4879;;;;
2019/09/20 09:59:52;;;;;;;10;2.8;;;;;;;18.28;48.91602;946.4448;;;;
2019/09/20 10:02:39;;;;;;;8.9;2.8;;;;;;;18.51;49.05859;946.399;;;;
2019/09/20 10:05:04;;;;;;;8.1;2.7;;;;;;;18.49;48.69727;946.4774;;;;
2019/09/20 10:07:30;;;;;;;12.7;3;;;;;;;18.47;51.32227;946.4445;;;;
2019/09/20 10:10:02;;;;;;;7.9;2.5;;;;;;;18.63;49.96875;946.4164;;;;
2019/09/20 10:12:25;;;;;;;8.8;2.8;;;;;;;18.63;49.20117;946.3728;;;;
2019/09/20 10:14:53;;;;;;;9.6;2.6;;;;;;;18.46;49.13379;946.4052;;;;
2019/09/20 10:17:23;;;;;;;7.5;2.6;;;;;;;18.38;48.66113;946.4288;;;;
2019/09/20 10:19:45;;;;;;;11.7;2.5;;;;;;;18.59;51.24219;946.392;;;;
2019/09/20 10:22:21;;;;;;;10.4;3;;;;;;;18.54;49.12012;946.3577;;;;
2019/09/20 10:24:45;;;;;;;9.4;2.6;;;;;;;18.67;50.14648;946.3903;;;;
2019/09/20 10:27:10;;;;;;;8.7;2.7;;;;;;;18.55;50.06445;946.3236;;;;
2019/09/20 10:29:37;;;;;;;7.6;2.6;;;;;;;18.82;50.93262;946.3674;;;;
2019/09/20 10:32:05;;;;;;;13;2.8;;;;;;;18.95;50.11035;946.325;;;;
2019/09/20 10:34:32;;;;;;;11.6;2.7;;;;;;;18.98;49.14648;946.3149;;;;
2019/09/20 10:37:00;;;;;;;11.2;2.9;;;;;;;18.9;50.9873;946.3038;;;;
2019/09/20 10:39:26;;;;;;;7.3;2.5;;;;;;;18.83;49.82813;946.2932;;;;
2019/09/20 10:41:56;;;;;;;12.2;2.8;;;;;;;18.92;49.41895;946.2188;;;;
2019/09/20 10:44:21;;;;;;;13.6;2.7;;;;;;;19.18;49.26074;946.2317;;;;
2019/09/20 10:47:15;;;;;;;8.1;2.6;;;;;;;19.41;48.23828;946.2479;;;;
2019/09/20 10:49:40;;;;;;;8;2.5;;;;;;;19.38;48.51465;946.1328;;;;
2019/09/20 10:52:09;;;;;;;8;2.8;;;;;;;19.55;49.11719;946.1498;;;;
2019/09/20 10:54:33;;;;;;;9.1;2.5;;;;;;;19.47;48.82813;946.1102;;;;
2019/09/20 10:57:03;;;;;;;55.3;4.7;;;;;;;19.61;47.96875;946.1539;;;;
2019/09/20 10:59:29;;;;;;;11.2;2.8;;;;;;;19.98;48.44141;946.072;;;;
2019/09/20 11:01:59;;;;;;;19.4;3.4;;;;;;;20.41;47.86816;946.1028;;;;
2019/09/20 11:04:32;;;;;;;8.9;2.6;;;;;;;20.87;46.29395;945.9858;;;;
2019/09/20 11:06:57;;;;;;;8;2.3;;;;;;;21.5;43.9375;946.0023;;;;
2019/09/20 11:09:22;;;;;;;10.7;2.7;;;;;;;21.62;43.53809;945.9504;;;;
2019/09/20 11:11:49;;;;;;;10.5;2.7;;;;;;;21.85;41.8623;946.0184;;;;
2019/09/20 11:14:17;;;;;;;10.3;2.7;;;;;;;22.55;41.30566;945.9758;;;;
2019/09/20 11:16:48;;;;;;;11.3;2.7;;;;;;;23.04;40.8584;945.9645;;;;
2019/09/20 11:19:12;;;;;;;10.4;2.7;;;;;;;23.72;38.33203;945.9339;;;;
2019/09/20 11:21:43;;;;;;;10.5;2.9;;;;;;;23.85;38.0957;945.9392;;;;
2019/09/20 11:24:06;;;;;;;7.8;2.6;;;;;;;24.44;37.25098;945.8791;;;;
2019/09/20 11:26:46;;;;;;;8.5;2.3;;;;;;;25.21;36.80762;945.8272;;;;
2019/09/20 11:29:11;;;;;;;11;2.6;;;;;;;25.28;35.50293;945.8049;;;;
2019/09/20 11:31:37;;;;;;;11;2.9;;;;;;;24.82;35.85547;945.8579;;;;
2019/09/20 11:34:03;;;;;;;6.3;2.4;;;;;;;24.77;35.95801;945.87;;;;
2019/09/20 11:36:31;;;;;;;10.2;2.7;;;;;;;25.33;35.75488;945.767;;;;
2019/09/20 11:39:05;;;;;;;18.7;3.1;;;;;;;25.98;34.6709;945.7516;;;;
2019/09/20 11:41:29;;;;;;;10.1;2.6;;;;;;;26.26;33.99512;945.7623;;;;
2019/09/20 11:43:56;;;;;;;9.6;2.7;;;;;;;26.37;32.37012;945.6922;;;;
2019/09/20 11:46:23;;;;;;;7.3;2.5;;;;;;;25.74;34.46387;945.6875;;;;
2019/09/20 11:48:51;;;;;;;8.2;2.6;;;;;;;25.63;34.50293;945.6956;;;;
2019/09/20 11:51:15;;;;;;;8.3;2.5;;;;;;;26.04;32.54785;945.7014;;;;
2019/09/20 11:53:40;;;;;;;9.4;2.4;;;;;;;26.65;32.86523;945.655;;;;
2019/09/20 11:56:07;;;;;;;10.3;2.9;;;;;;;27.05;32.53711;945.6312;;;;
2019/09/20 11:58:45;;;;;;;9.3;2.5;;;;;;;26.63;32.05762;945.7711;;;;
2019/09/20 12:01:11;;;;;;;9.1;2.8;;;;;;;26.75;31.82813;945.7117;;;;
2019/09/20 12:03:40;;;;;;;9.2;2.8;;;;;;;26.83;31.4082;945.8081;;;;
2019/09/20 12:06:05;;;;;;;9.8;2.9;;;;;;;27.76;30.96289;945.7001;;;;
2019/09/20 12:08:30;;;;;;;8.1;2.3;;;;;;;27.4;30.98535;945.7692;;;;
2019/09/20 12:10:57;;;;;;;7.7;2.5;;;;;;;28.24;30.00879;945.6351;;;;
2019/09/20 12:13:24;;;;;;;9.6;2.7;;;;;;;28.93;29.12695;945.6668;;;;
2019/09/20 12:15:53;;;;;;;10.1;2.9;;;;;;;29.49;28.13867;945.6248;;;;
2019/09/20 12:18:18;;;;;;;7;2.5;;;;;;;29.31;28.09082;945.6324;;;;
2019/09/20 12:20:45;;;;;;;7.7;2.6;;;;;;;30.19;27.64453;945.618;;;;
2019/09/20 12:23:18;;;;;;;10.3;2.8;;;;;;;29.95;27.62988;945.6094;;;;
2019/09/20 12:25:44;;;;;;;8.5;2.6;;;;;;;29.49;26.89844;945.6038;;;;
2019/09/20 12:28:10;;;;;;;10;2.8;;;;;;;29.48;27.54199;945.5856;;;;
2019/09/20 12:30:41;;;;;;;10.1;2.4;;;;;;;29.98;26.82129;945.5293;;;;
2019/09/20 12:33:07;;;;;;;7.8;2.8;;;;;;;30.24;27.02637;945.5614;;;;
2019/09/20 12:35:37;;;;;;;8.1;2.5;;;;;;;31;26.29492;945.589;;;;
2019/09/20 12:38:03;;;;;;;6.9;2.5;;;;;;;31.13;26.12305;945.49;;;;
2019/09/20 12:43:06;;;;;;;5.8;2.4;;;;;;;30.95;25.83789;945.5275;;;;
2019/09/20 12:45:27;;;;;;;8.6;2.5;;;;;;;31.2;25.70898;945.5338;;;;
2019/09/20 12:47:53;;;;;;;9.2;2.5;;;;;;;31.16;25.25195;945.5778;;;;
2019/09/20 12:50:21;;;;;;;7.4;2.4;;;;;;;31.28;25.0791;945.4924;;;;
2019/09/20 12:52:45;;;;;;;9.6;2.8;;;;;;;30.12;26.10059;945.3797;;;;
2019/09/20 12:55:11;;;;;;;7.7;2.6;;;;;;;30.17;26.1875;945.3733;;;;
2019/09/20 12:57:40;;;;;;;6.7;2.7;;;;;;;30.6;26.52246;945.3819;;;;
2019/09/20 13:00:12;;;;;;;8;2.6;;;;;;;30.7;25.93066;945.3486;;;;
2019/09/20 13:02:41;;;;;;;9;2.8;;;;;;;30.09;26.60059;945.2939;;;;
2019/09/20 13:05:09;;;;;;;8.1;2.6;;;;;;;30.25;26.38281;945.2723;;;;
2019/09/20 13:07:36;;;;;;;7.6;2.5;;;;;;;29.69;26.6123;945.2609;;;;
2019/09/20 13:10:01;;;;;;;7.8;2.5;;;;;;;29.1;27.32813;945.2351;;;;
2019/09/20 13:12:30;;;;;;;10.2;3.1;;;;;;;29.97;27.16602;945.2137;;;;
2019/09/20 13:14:55;;;;;;;8;2.5;;;;;;;30.83;25.77051;945.2283;;;;
2019/09/20 13:17:19;;;;;;;9.6;2.5;;;;;;;31.01;24.98047;945.2449;;;;
2019/09/20 13:19:44;;;;;;;9.3;2.6;;;;;;;30.19;26.62988;945.1956;;;;
2019/09/20 13:22:10;;;;;;;6.2;2.3;;;;;;;30.3;25.88477;945.2352;;;;
2019/09/20 13:24:39;;;;;;;7.7;2.4;;;;;;;29.93;26.79395;945.2317;;;;
2019/09/20 13:27:06;;;;;;;8.6;2.7;;;;;;;30.26;25.99023;945.1975;;;;
2019/09/20 13:29:37;;;;;;;9.5;2.4;;;;;;;29.32;26.99512;945.2308;;;;
2019/09/20 13:32:10;;;;;;;10.1;2.4;;;;;;;28.87;27.42188;945.1989;;;;
2019/09/20 13:34:38;;;;;;;11.3;2.5;;;;;;;28.43;28.42871;945.2156;;;;
2019/09/20 13:37:04;;;;;;;12.3;2.7;;;;;;;28.09;28.76367;945.216;;;;
2019/09/20 13:39:37;;;;;;;7.8;2.6;;;;;;;28.43;28.96484;945.2395;;;;
2019/09/20 13:42:10;;;;;;;7.3;2.4;;;;;;;28.76;28.16406;945.2286;;;;
2019/09/20 13:44:41;;;;;;;7.8;2.8;;;;;;;28.24;27.78613;945.1863;;;;
2019/09/20 13:47:07;;;;;;;8.7;2.6;;;;;;;27.82;28.9248;945.1619;;;;
2019/09/20 13:49:32;;;;;;;8.5;2.8;;;;;;;28.14;29.0752;945.1956;;;;
2019/09/20 13:52:02;;;;;;;8;2.3;;;;;;;27.31;28.99902;945.1801;;;;
2019/09/20 13:54:24;;;;;;;9.4;2.5;;;;;;;28.14;28.69629;945.1905;;;;
2019/09/20 13:56:50;;;;;;;9.4;2.5;;;;;;;27.97;28.31738;945.2137;;;;
2019/09/20 13:59:17;;;;;;;8.1;2.5;;;;;;;27.91;28.60938;945.2015;;;;
2019/09/20 14:02:57;;;;;;;8.8;2.7;;;;;;;26.55;30.48926;945.2327;;;;
2019/09/20 14:05:38;;;;;;;8.6;2.5;;;;;;;25.62;31.80859;945.1775;;;;
2019/09/20 14:08:03;;;;;;;9.5;2.7;;;;;;;25.07;32.21777;945.1987;;;;
2019/09/20 14:10:29;;;;;;;8.1;2.7;;;;;;;24.47;33.06934;945.2064;;;;
2019/09/20 14:12:57;;;;;;;7.8;2.7;;;;;;;24.05;33.8877;945.1342;;;;
2019/09/20 14:15:24;;;;;;;9;2.7;;;;;;;23.71;35.625;945.1581;;;;
2019/09/20 14:17:48;;;;;;;8.3;2.6;;;;;;;23.42;36.34277;945.1707;;;;
2019/09/20 14:20:17;;;;;;;12.5;2.8;;;;;;;23.42;36.67188;945.1537;;;;
2019/09/20 14:22:40;;;;;;;10.5;2.7;;;;;;;23.19;36.53613;945.1355;;;;
2019/09/20 14:25:06;;;;;;;11.2;2.8;;;;;;;22.51;38.26367;945.1317;;;;
2019/09/20 14:27:34;;;;;;;7.3;2.6;;;;;;;22.23;38.97754;945.2059;;;;
2019/09/20 14:29:58;;;;;;;7.8;2.5;;;;;;;22.2;38.81152;945.1454;;;;
2019/09/20 14:32:36;;;;;;;10.3;2.8;;;;;;;22.22;39.00098;945.1814;;;;
2019/09/20 14:35:07;;;;;;;11.5;2.8;;;;;;;21.39;40.90527;945.0878;;;;
2019/09/20 14:37:34;;;;;;;12.9;2.9;;;;;;;21.28;40.8252;945.1008;;;;
2019/09/20 14:40:05;;;;;;;9.4;2.9;;;;;;;21.16;40.2998;945.0427;;;;
2019/09/20 14:42:34;;;;;;;7;2.7;;;;;;;21.04;40.59375;945.0046;;;;
2019/09/20 14:44:59;;;;;;;11.5;2.9;;;;;;;20.85;41.40527;945.0559;;;;
2019/09/20 14:47:33;;;;;;;10.4;2.9;;;;;;;20.49;40.99805;944.9949;;;;
2019/09/20 14:49:59;;;;;;;9.7;2.9;;;;;;;19.85;42.5957;945.052;;;;
2019/09/20 14:52:31;;;;;;;9.1;2.8;;;;;;;19.9;44.08203;945.0941;;;;
2019/09/20 14:54:58;;;;;;;8.8;2.6;;;;;;;19.83;43.45703;945.1082;;;;
2019/09/20 14:57:26;;;;;;;9.6;2.9;;;;;;;19.99;43.26172;945.1105;;;;
2019/09/20 15:02:53;;;;;;;8;2.5;;;;;;;20.1;42.77148;945.1591;;;;
2019/09/20 15:05:22;;;;;;;9;2.7;;;;;;;20.12;43.14551;945.1476;;;;
2019/09/20 15:07:48;;;;;;;11.2;2.9;;;;;;;19.87;42.25879;945.1561;;;;
2019/09/20 15:10:15;;;;;;;7.1;2.6;;;;;;;19.46;43.73438;945.1691;;;;
2019/09/20 15:12:44;;;;;;;9.3;2.8;;;;;;;19.21;44.31543;945.2017;;;;
2019/09/20 15:15:26;;;;;;;8.2;2.7;;;;;;;18.97;45.08301;945.1462;;;;
2019/09/20 15:17:54;;;;;;;9.1;2.5;;;;;;;19.19;45.15137;945.1682;;;;
2019/09/20 15:20:22;;;;;;;12.2;2.8;;;;;;;19.23;45.5625;945.1235;;;;
2019/09/20 15:22:54;;;;;;;10;2.9;;;;;;;19.13;45.27344;945.1156;;;;
2019/09/20 15:25:27;;;;;;;10.6;2.9;;;;;;;19.09;45.4209;945.1758;;;;
2019/09/20 15:27:54;;;;;;;11.5;3.1;;;;;;;19.08;45.11816;945.2292;;;;
2019/09/20 15:30:21;;;;;;;8.5;3.1;;;;;;;18.82;45.06641;945.2389;;;;
2019/09/20 15:32:54;;;;;;;9.6;2.8;;;;;;;18.63;45.74512;945.2054;;;;
2019/09/20 15:35:21;;;;;;;10.3;3.1;;;;;;;18.47;45.83496;945.2919;;;;
2019/09/20 15:37:47;;;;;;;11.5;2.8;;;;;;;18.45;46.54102;945.2809;;;;
2019/09/20 15:40:16;;;;;;;9.8;2.7;;;;;;;18.29;47.03516;945.3514;;;;
2019/09/20 15:42:49;;;;;;;11.9;2.8;;;;;;;17.95;47.30078;945.3077;;;;
2019/09/20 15:45:19;;;;;;;9.3;3;;;;;;;17.68;47.99219;945.2706;;;;
2019/09/20 15:47:44;;;;;;;9;3;;;;;;;17.91;47.51758;945.2806;;;;
2019/09/20 15:50:09;;;;;;;9.6;3.1;;;;;;;17.49;48.12109;945.2286;;;;
2019/09/20 15:52:42;;;;;;;9.5;3.3;;;;;;;17.67;47.50293;945.1423;;;;
2019/09/20 15:55:14;;;;;;;13.2;3.3;;;;;;;17.36;47.85254;945.1984;;;;
2019/09/20 15:57:45;;;;;;;9.3;3;;;;;;;17.47;48.5498;945.1731;;;;
2019/09/20 16:00:19;;;;;;;8.8;3.3;;;;;;;17.25;48.39648;945.2256;;;;
2019/09/20 16:02:48;;;;;;;10.5;3.3;;;;;;;17.19;48.95801;945.2167;;;;
2019/09/20 16:05:29;;;;;;;8.9;3.3;;;;;;;17.3;48.75098;945.1819;;;;
2019/09/20 16:08:01;;;;;;;15.5;3.6;;;;;;;17.42;48.9375;945.1976;;;;
2019/09/20 16:10:26;;;;;;;7.7;3.4;;;;;;;17.19;49.01758;945.1917;;;;
2019/09/20 16:12:57;;;;;;;10.8;3.4;;;;;;;17.24;49.79883;945.2264;;;;
2019/09/20 16:15:40;;;;;;;9;3.4;;;;;;;17.31;48.99512;945.2662;;;;
2019/09/20 16:18:06;;;;;;;8.2;3.2;;;;;;;17.14;49.38184;945.2242;;;;
2019/09/20 16:20:36;;;;;;;10.6;3.2;;;;;;;17.02;49.10156;945.2787;;;;
2019/09/20 16:23:07;;;;;;;9.1;3.3;;;;;;;16.63;49.91504;945.2461;;;;
2019/09/20 16:25:38;;;;;;;11.8;3.6;;;;;;;16.47;50.25488;945.255;;;;
2019/09/20 16:28:02;;;;;;;9.9;3.4;;;;;;;16.42;50.00684;945.2969;;;;
2019/09/20 16:30:31;;;;;;;11.8;3.7;;;;;;;16.41;50.37598;945.3304;;;;
2019/09/20 16:32:59;;;;;;;8.2;3.1;;;;;;;16.24;50.86523;945.2383;;;;
2019/09/20 16:35:22;;;;;;;10.4;3.4;;;;;;;16.11;50.81641;945.3449;;;;
2019/09/20 16:37:47;;;;;;;9.6;3.3;;;;;;;16.18;50.19824;945.3577;;;;
2019/09/20 16:40:14;;;;;;;7.5;3.2;;;;;;;16.13;50.5293;945.3312;;;;
2019/09/20 16:42:40;;;;;;;13.1;3.6;;;;;;;15.97;50.94922;945.3984;;;;
2019/09/20 16:45:26;;;;;;;11.1;3.6;;;;;;;15.9;51.6709;945.4065;;;;
2019/09/20 16:47:56;;;;;;;9.9;3.8;;;;;;;15.79;51.87695;945.3201;;;;
2019/09/20 16:50:27;;;;;;;9;3.7;;;;;;;15.86;51.51465;945.3703;;;;
2019/09/20 16:52:56;;;;;;;8.8;3.4;;;;;;;15.77;51.99023;945.3265;;;;
2019/09/20 16:55:20;;;;;;;9.9;3.5;;;;;;;15.72;52.00586;945.3354;;;;
2019/09/20 16:57:50;;;;;;;10.1;3.3;;;;;;;15.58;53.04102;945.3194;;;;
2019/09/20 17:00:34;;;;;;;10.8;3.5;;;;;;;15.6;53.35547;945.3799;;;;
2019/09/20 17:02:55;;;;;;;11.2;3.6;;;;;;;15.57;52.91309;945.4454;;;;
2019/09/20 17:05:23;;;;;;;11.1;3.6;;;;;;;15.46;53.61523;945.4797;;;;
2019/09/20 17:07:56;;;;;;;9.8;3.9;;;;;;;15.52;53.14941;945.4894;;;;
2019/09/20 17:10:46;;;;;;;8.3;3.3;;;;;;;15.59;54.01367;945.5966;;;;
2019/09/20 17:12:59;;;;;;;8.8;3.2;;;;;;;15.61;54.68555;945.5903;;;;
2019/09/20 17:15:29;;;;;;;11.5;3.2;;;;;;;15.51;54.64941;945.585;;;;
2019/09/20 17:17:51;;;;;;;10.3;3.4;;;;;;;15.41;55.66309;945.6021;;;;
2019/09/20 17:20:15;;;;;;;10.3;3.4;;;;;;;15.17;57.06445;945.6516;;;;
2019/09/20 17:22:40;;;;;;;9.7;3.3;;;;;;;15.07;57.05176;945.656;;;;
2019/09/20 17:25:52;;;;;;;7.6;2.6;;;;;;;15.03;57.07031;945.6494;;;;
2019/09/20 17:28:19;;;;;;;8.7;3.1;;;;;;;15.01;57.99023;945.7237;;;;
2019/09/20 17:30:44;;;;;;;8.5;3.1;;;;;;;14.76;57.94531;945.715;;;;
2019/09/20 17:33:10;;;;;;;8.6;3.3;;;;;;;14.63;58.85059;945.7968;;;;
2019/09/20 17:35:40;;;;;;;14.4;3.5;;;;;;;14.51;59.12207;945.7676;;;;
2019/09/20 17:38:44;;;;;;;10.7;3.3;;;;;;;14.45;58.88379;945.7946;;;;
2019/09/20 17:40:49;;;;;;;9.4;3;;;;;;;14.47;59.2666;945.7642;;;;
2019/09/20 17:43:17;;;;;;;12.3;3.3;;;;;;;14.51;59.55957;945.791;;;;
2019/09/20 17:45:51;;;;;;;9.7;3.4;;;;;;;14.51;58.51074;945.7813;;;;
2019/09/20 17:48:39;;;;;;;13.2;3.2;;;;;;;14.47;59.3584;945.7073;;;;
2019/09/20 17:51:23;;;;;;;9.9;3.4;;;;;;;14.47;59.80762;945.7555;;;;
2019/09/20 17:53:54;;;;;;;10.4;3.7;;;;;;;14.49;60.43262;945.8461;;;;
2019/09/20 17:56:38;;;;;;;13.3;3.6;;;;;;;14.46;60.53125;945.8627;;;;
2019/09/20 17:59:01;;;;;;;11.4;3.9;;;;;;;14.45;60.28906;945.8234;;;;
2019/09/20 18:01:57;;;;;;;9;3.7;;;;;;;14.41;59.82227;945.8553;;;;
2019/09/20 18:04:06;;;;;;;11.7;3.9;;;;;;;14.31;60.48828;945.8563;;;;
2019/09/20 18:06:33;;;;;;;9.7;3.2;;;;;;;14.25;60.83691;945.8125;;;;
2019/09/20 18:09:01;;;;;;;8.7;3.3;;;;;;;14.22;61.7666;945.8549;;;;
2019/09/20 18:11:25;;;;;;;9.2;3.2;;;;;;;14.16;61.31934;945.822;;;;
2019/09/20 18:13:59;;;;;;;8.6;3.1;;;;;;;14.09;61.25098;945.8744;;;;
2019/09/20 18:16:30;;;;;;;9.2;3.2;;;;;;;13.98;61.12109;945.8739;;;;
2019/09/20 18:19:02;;;;;;;9.6;2.9;;;;;;;13.91;61.38867;945.8525;;;;
2019/09/20 18:21:29;;;;;;;7.8;3.1;;;;;;;13.85;61.91992;945.8912;;;;
2019/09/20 18:24:04;;;;;;;8.7;3.4;;;;;;;13.87;61.55469;945.8705;;;;
2019/09/20 18:26:26;;;;;;;8.7;3.4;;;;;;;13.85;62.00098;945.8616;;;;
2019/09/20 18:28:51;;;;;;;10.1;4;;;;;;;13.81;61.48926;945.8121;;;;
2019/09/20 18:31:15;;;;;;;8.3;3.5;;;;;;;13.73;61.57031;945.8265;;;;
2019/09/20 18:33:43;;;;;;;10.4;3.6;;;;;;;13.68;62.14844;945.7941;;;;
2019/09/20 18:36:08;;;;;;;8.4;3.4;;;;;;;13.61;62.12793;945.8292;;;;
2019/09/20 18:38:34;;;;;;;9;3.6;;;;;;;13.57;62.59277;945.7878;;;;